Time,TemperatureF,DewpointF,PressureIn,WindDirection,WindDirectionDegrees,WindSpeedMPH,WindSpeedGustMPH,Humidity,HourlyPrecipIn,Conditions,Clouds,dailyrainin,SoftwareType,DateUTC
2013-03-02 02:02:00,50.0,-99.9,-100.00,SSE,164,2.0,3.0,-999,-99.99,,,-99.99,,2013-03-02 10:02:00,
2013-03-02 02:16:00,50.0,-99.9,30.21,SSE,164,2.0,3.0,-999,-99.99,,,-99.99,,2013-03-02 10:16:00,
2013-03-02 05:02:00,49.0,-99.9,-100.00,South,171,4.0,4.0,-999,-99.99,,,-99.99,,2013-03-02 13:02:00,
2013-03-02 05:11:00,49.0,-99.9,30.18,South,171,4.0,4.0,-999,-99.99,,,-99.99,,2013-03-02 13:11:00,
2013-03-02 07:02:00,48.0,-99.9,-100.00,SE,133,3.0,3.0,-999,-99.99,,,-99.99,,2013-03-02 15:02:00,
2013-03-02 07:11:00,48.0,-99.9,30.18,SE,133,3.0,3.0,-999,-99.99,,,-99.99,,2013-03-02 15:11:00,
2013-03-02 10:02:00,56.0,-99.9,-100.00,SE,130,3.0,4.0,-999,-99.99,,,-99.99,,2013-03-02 18:02:00,
2013-03-02 10:12:00,56.0,-99.9,30.19,SE,130,3.0,4.0,-999,-99.99,,,-99.99,,2013-03-02 18:12:00,
2013-03-02 13:02:00,55.0,-99.9,-100.00,North,1,4.0,6.0,-999,-99.99,,,-99.99,,2013-03-02 21:02:00,
2013-03-02 13:12:00,55.0,-99.9,30.15,North,1,4.0,6.0,-999,-99.99,,,-99.99,,2013-03-02 21:12:00,
2013-03-02 15:02:00,61.0,-99.9,-100.00,NNW,342,2.0,8.0,-999,-99.99,,,-99.99,,2013-03-02 23:02:00,
2013-03-02 15:11:00,61.0,-99.9,30.11,NNW,342,2.0,8.0,-999,-99.99,,,-99.99,,2013-03-02 23:11:00,
2013-03-02 18:01:00,52.0,-99.9,-100.00,SW,223,6.0,11.0,-999,-99.99,,,-99.99,,2013-03-03 02:01:00,
2013-03-02 18:11:00,52.0,-99.9,30.14,SW,223,6.0,11.0,-999,-99.99,,,-99.99,,2013-03-03 02:11:00,
2013-03-02 20:01:00,50.0,-99.9,-100.00,SW,226,5.0,9.0,-999,-99.99,,,-99.99,,2013-03-03 04:01:00,
2013-03-02 20:11:00,50.0,-99.9,30.16,SW,226,5.0,9.0,-999,-99.99,,,-99.99,,2013-03-03 04:11:00,
2013-03-02 21:02:00,50.0,-99.9,-100.00,WSW,246,2.0,3.0,-999,-99.99,,,-99.99,,2013-03-03 05:02:00,
2013-03-02 21:12:00,50.0,-99.9,30.16,WSW,246,2.0,3.0,-999,-99.99,,,-99.99,,2013-03-03 05:12:00,
2013-03-02 23:01:00,51.0,-99.9,-100.00,NNW,327,5.0,7.0,-999,-99.99,,,-99.99,,2013-03-03 07:01:00,
2013-03-02 23:11:00,51.0,-99.9,30.14,NNW,327,5.0,7.0,-999,-99.99,,,-99.99,,2013-03-03 07:11:00,